createdAt,value
2019-01-08T00:02:51.034Z,8.20
2019-01-08T00:12:54.615Z,8.30
2019-01-08T00:22:58.196Z,8.20
2019-01-08T00:33:01.799Z,8.20
2019-01-08T00:43:05.415Z,8.10
2019-01-08T00:53:09.866Z,8.00
2019-01-08T01:03:13.482Z,7.90
2019-01-08T01:13:17.066Z,7.90
2019-01-08T01:23:20.655Z,7.90
2019-01-08T01:33:24.243Z,7.90
2019-01-08T01:43:27.870Z,7.90
2019-01-08T01:53:31.467Z,7.90
2019-01-08T02:03:35.090Z,7.70
2019-01-08T02:13:44.810Z,7.50
2019-01-08T02:23:48.414Z,7.50
2019-01-08T02:33:51.999Z,7.60
2019-01-08T02:43:55.680Z,7.70
2019-01-08T02:53:59.435Z,7.50
2019-01-08T03:04:03.119Z,7.30
2019-01-08T03:14:06.839Z,7.10
2019-01-08T03:24:10.499Z,7.00
2019-01-08T03:34:14.202Z,7.10
2019-01-08T03:44:17.863Z,7.10
2019-01-08T03:54:21.521Z,7.10
2019-01-08T04:04:25.202Z,7.20
2019-01-08T04:14:28.897Z,7.10
2019-01-08T04:24:32.553Z,7.10
2019-01-08T04:34:36.199Z,7.20
2019-01-08T04:44:39.852Z,7.20
2019-01-08T04:54:43.559Z,7.10
2019-01-08T05:04:47.178Z,7.20
2019-01-08T05:14:50.758Z,7.20
2019-01-08T05:24:54.344Z,7.10
2019-01-08T05:34:57.934Z,7.10
2019-01-08T05:45:01.754Z,7.10
2019-01-08T05:55:05.407Z,7.20
2019-01-08T06:05:09.372Z,7.30
2019-01-08T06:15:13.513Z,7.20
2019-01-08T06:25:17.219Z,7.30
2019-01-08T06:35:22.390Z,7.50
2019-01-08T06:45:25.994Z,7.40
2019-01-08T06:55:29.594Z,7.40
2019-01-08T07:05:33.170Z,7.40
2019-01-08T07:15:36.749Z,7.40
2019-01-08T07:25:42.290Z,7.20
2019-01-08T07:35:45.609Z,7.30
2019-01-08T07:45:49.170Z,7.40
2019-01-08T07:55:52.838Z,7.40
2019-01-08T08:05:56.405Z,7.50
2019-01-08T08:16:00.002Z,7.50
2019-01-08T08:26:03.658Z,7.50
2019-01-08T08:36:07.262Z,7.50
2019-01-08T08:46:10.871Z,7.50
2019-01-08T08:56:14.458Z,7.40
2019-01-08T09:06:18.042Z,7.40
2019-01-08T09:16:21.617Z,7.30
2019-01-08T09:26:25.242Z,7.40
2019-01-08T09:36:28.838Z,7.50
2019-01-08T09:46:32.424Z,7.40
2019-01-08T09:56:36.046Z,7.40
2019-01-08T10:06:39.958Z,7.40
2019-01-08T10:16:43.542Z,7.40
2019-01-08T10:26:47.166Z,7.40
2019-01-08T10:36:50.827Z,7.30
2019-01-08T10:46:54.455Z,7.30
2019-01-08T10:56:58.235Z,7.30
2019-01-08T11:07:01.985Z,7.30
2019-01-08T11:17:05.636Z,7.30
2019-01-08T11:27:09.291Z,7.40
2019-01-08T11:37:12.983Z,7.40
2019-01-08T11:47:16.679Z,7.40
2019-01-08T11:57:20.334Z,7.30
2019-01-08T12:07:31.132Z,7.50
2019-01-08T12:17:29.354Z,7.50
2019-01-08T12:27:33.091Z,7.50
2019-01-08T12:37:36.780Z,7.40
2019-01-08T12:47:40.448Z,7.40
2019-01-08T12:57:44.063Z,7.40
2019-01-08T13:07:47.646Z,7.30
2019-01-08T13:17:52.330Z,7.40
2019-01-08T13:27:55.917Z,7.50
2019-01-08T13:37:59.510Z,7.60
2019-01-08T13:48:03.087Z,7.50
2019-01-08T13:58:06.682Z,7.20
2019-01-08T14:08:10.274Z,7.00
2019-01-08T14:18:13.845Z,6.80
2019-01-08T14:28:17.422Z,6.70
2019-01-08T14:38:21.064Z,6.50
2019-01-08T14:48:24.680Z,6.20
2019-01-08T14:58:28.258Z,6.10
2019-01-08T15:08:31.841Z,6.00
2019-01-08T15:18:36.217Z,6.10
2019-01-08T15:28:39.803Z,6.00
2019-01-08T15:38:43.362Z,6.10
2019-01-08T15:48:46.946Z,6.20
2019-01-08T15:58:50.540Z,6.20
2019-01-08T16:08:54.097Z,6.20
2019-01-08T16:18:57.662Z,6.10
2019-01-08T16:29:01.238Z,6.20
2019-01-08T16:39:06.881Z,6.20
2019-01-08T16:49:10.623Z,6.10
2019-01-08T16:59:14.231Z,6.00
2019-01-08T17:09:17.806Z,6.00
2019-01-08T17:19:21.394Z,5.80
2019-01-08T17:29:24.963Z,5.80
2019-01-08T17:39:28.550Z,5.80
2019-01-08T17:49:32.321Z,5.70
2019-01-08T17:59:35.917Z,5.70
2019-01-08T18:09:39.486Z,5.60
2019-01-08T18:19:45.077Z,5.50
2019-01-08T18:29:48.644Z,5.50
2019-01-08T18:39:52.223Z,5.50
2019-01-08T18:49:55.782Z,5.70
2019-01-08T18:59:59.414Z,5.80
2019-01-08T19:10:12.170Z,5.80
2019-01-08T19:20:16.042Z,5.90
2019-01-08T19:30:19.615Z,5.80
2019-01-08T19:40:23.191Z,5.40
2019-01-08T19:50:27.900Z,5.40
2019-01-08T20:00:31.509Z,5.60
2019-01-08T20:10:35.120Z,5.30
2019-01-08T20:20:38.709Z,5.10
2019-01-08T20:30:42.365Z,4.80
2019-01-08T20:40:45.975Z,4.50
2019-01-08T20:50:49.547Z,4.30
2019-01-08T21:00:58.998Z,4.30
2019-01-08T21:11:02.814Z,4.20
2019-01-08T21:21:06.398Z,4.20
2019-01-08T21:31:09.974Z,4.00
2019-01-08T21:41:13.863Z,4.30
2019-01-08T21:51:17.406Z,4.20
2019-01-08T22:01:21.050Z,4.20
2019-01-08T22:11:24.708Z,4.20
2019-01-08T22:21:28.282Z,4.20
2019-01-08T22:31:32.102Z,4.10
2019-01-08T22:41:37.018Z,4.10
2019-01-08T22:51:40.578Z,4.00
2019-01-08T23:01:46.978Z,4.00
2019-01-08T23:12:00.514Z,4.00
2019-01-08T23:22:04.107Z,4.10
2019-01-08T23:32:14.282Z,4.30
2019-01-08T23:42:17.860Z,4.30
2019-01-08T23:52:29.498Z,4.40
